Time;durP1;ratioP1;P1;durP2;ratioP2;P2;SDS_P1;SDS_P2;PMS_P1;PMS_P2;Temp;Humidity;BMP_temperature;BMP_pressure;BME280_temperature;BME280_humidity;BME280_pressure;Samples;Min_cycle;Max_cycle;Signal;HPM_P1;HPM_P2
2023/04/16 00:02:04;;;;;;;6.97;4.33;;;9.70;99.90;9.60;100338.00;;;;5009349;27;108814;-65
2023/04/16 00:04:29;;;;;;;8.90;4.77;;;9.70;99.90;9.60;100340.00;;;;4988948;27;108268;-68
2023/04/16 00:06:55;;;;;;;5.77;3.93;;;9.70;99.90;9.60;100351.00;;;;5007903;27;116915;-68
2023/04/16 00:09:21;;;;;;;8.90;4.70;;;9.70;99.90;9.60;100346.00;;;;5004960;27;110488;-66
2023/04/16 00:11:46;;;;;;;7.37;4.37;;;9.70;99.90;9.60;100346.00;;;;5009614;27;109340;-66
2023/04/16 00:14:12;;;;;;;4.70;3.90;;;9.70;99.90;9.60;100346.00;;;;5005783;27;117415;-66
2023/04/16 00:16:38;;;;;;;5.37;3.43;;;9.60;99.90;9.60;100350.00;;;;5008545;27;117472;-67
2023/04/16 00:19:03;;;;;;;3.77;3.17;;;9.80;99.90;9.60;100355.00;;;;4991038;27;112759;-67
2023/04/16 00:21:30;;;;;;;4.63;3.70;;;9.60;99.90;9.60;100360.00;;;;5006151;27;107177;-67
2023/04/16 00:23:55;;;;;;;7.07;4.43;;;9.70;99.90;9.60;100351.00;;;;5007204;27;87941;-66
2023/04/16 00:26:21;;;;;;;6.23;5.13;;;9.70;99.90;9.60;100347.00;;;;4990433;27;118599;-67
2023/04/16 00:28:47;;;;;;;7.10;4.73;;;9.70;99.90;9.60;100348.00;;;;5004885;27;109282;-67
2023/04/16 00:31:12;;;;;;;4.77;4.07;;;9.70;99.90;9.70;100356.00;;;;5009292;27;88272;-67
2023/04/16 00:33:38;;;;;;;7.17;4.70;;;9.70;99.90;9.60;100360.00;;;;5005164;27;118494;-67
2023/04/16 00:36:08;;;;;;;5.97;4.33;;;9.80;99.90;9.60;100347.00;;;;5007899;27;89022;-67
2023/04/16 00:38:33;;;;;;;6.57;5.00;;;9.70;99.90;9.60;100356.00;;;;5005086;27;99223;-67
2023/04/16 00:40:59;;;;;;;4.50;3.63;;;9.70;99.90;9.50;100352.00;;;;5006865;27;87955;-67
2023/04/16 00:43:26;;;;;;;5.87;2.93;;;9.60;99.90;9.50;100357.00;;;;5006087;27;89348;-67
2023/04/16 00:45:55;;;;;;;5.17;4.03;;;9.60;99.90;9.50;100352.00;;;;5007017;27;88968;-66
2023/04/16 00:48:21;;;;;;;4.27;3.10;;;9.60;99.90;9.50;100361.00;;;;5018707;27;95277;-67
2023/04/16 00:50:47;;;;;;;4.40;3.60;;;9.60;99.90;9.50;100349.00;;;;5006452;27;108725;-67
2023/04/16 00:53:14;;;;;;;4.73;3.67;;;9.60;99.90;9.50;100353.00;;;;5003804;27;88742;-67
2023/04/16 00:55:39;;;;;;;4.20;3.77;;;9.60;99.90;9.50;100358.00;;;;5006175;27;88644;-67
2023/04/16 00:58:05;;;;;;;7.60;3.67;;;9.60;99.90;9.50;100355.00;;;;5005128;27;88583;-67
2023/04/16 01:00:31;;;;;;;5.90;4.47;;;9.60;99.90;9.50;100356.00;;;;5004502;27;108021;-67
2023/04/16 01:02:58;;;;;;;4.60;4.03;;;9.60;99.90;9.50;100349.00;;;;5002715;27;105697;-67
2023/04/16 01:05:25;;;;;;;5.30;3.77;;;9.60;99.90;9.50;100358.00;;;;5008137;27;88911;-67
2023/04/16 01:07:51;;;;;;;4.93;4.33;;;9.60;99.90;9.50;100356.00;;;;5006544;27;104639;-67
2023/04/16 01:10:16;;;;;;;6.30;4.20;;;9.60;99.90;9.50;100356.00;;;;5005129;27;108624;-67
2023/04/16 01:12:42;;;;;;;5.03;4.07;;;9.60;99.90;9.50;100355.00;;;;5008469;27;116477;-67
2023/04/16 01:15:08;;;;;;;4.60;3.87;;;9.60;99.90;9.50;100366.00;;;;5006412;27;117316;-67
2023/04/16 01:17:33;;;;;;;6.77;4.17;;;9.60;99.90;9.50;100362.00;;;;5008768;27;87789;-67
2023/04/16 01:20:00;;;;;;;4.60;3.53;;;9.60;99.90;9.50;100362.00;;;;5005041;27;109568;-66
2023/04/16 01:22:27;;;;;;;5.20;3.60;;;9.50;99.90;9.50;100363.00;;;;5005458;27;118034;-67
2023/04/16 01:24:53;;;;;;;7.20;4.00;;;9.60;99.90;9.50;100363.00;;;;5007243;27;89530;-67
2023/04/16 01:27:18;;;;;;;6.80;4.80;;;9.50;99.90;9.50;100368.00;;;;5004704;27;111275;-67
2023/04/16 01:29:44;;;;;;;5.10;4.20;;;9.60;99.90;9.50;100368.00;;;;5005877;27;109233;-67
2023/04/16 01:32:10;;;;;;;7.17;4.37;;;9.60;99.90;9.50;100375.00;;;;5006144;27;117879;-67
2023/04/16 01:34:35;;;;;;;7.07;4.97;;;9.60;99.90;9.50;100362.00;;;;5002840;27;87870;-67
2023/04/16 01:37:02;;;;;;;6.33;4.33;;;9.60;99.90;9.50;100375.00;;;;5007141;27;111648;-66
2023/04/16 01:39:28;;;;;;;5.77;3.57;;;9.60;99.90;9.50;100376.00;;;;5005605;27;93473;-66
2023/04/16 01:41:54;;;;;;;4.53;3.80;;;9.60;99.90;9.50;100364.00;;;;5008354;27;98109;-66
2023/04/16 01:44:20;;;;;;;5.23;4.03;;;9.60;99.90;9.50;100374.00;;;;5002635;27;118180;-67
2023/04/16 01:46:46;;;;;;;4.07;3.67;;;9.60;99.90;9.50;100364.00;;;;5006746;27;88944;-66
2023/04/16 01:49:12;;;;;;;5.43;4.20;;;9.50;99.90;9.50;100361.00;;;;5005899;27;87853;-66
2023/04/16 01:51:38;;;;;;;3.97;3.37;;;9.60;99.90;9.50;100372.00;;;;5021335;27;87745;-66
2023/04/16 01:54:04;;;;;;;5.57;4.03;;;9.50;99.90;9.40;100368.00;;;;5016830;27;117915;-66
2023/04/16 01:56:29;;;;;;;5.70;4.47;;;9.50;99.90;9.40;100369.00;;;;4987691;27;88032;-66
2023/04/16 01:58:55;;;;;;;4.07;3.30;;;9.60;99.90;9.40;100373.00;;;;5005468;27;96267;-66
2023/04/16 02:01:21;;;;;;;6.33;3.60;;;9.50;99.90;9.40;100367.00;;;;5002718;27;115513;-66
2023/04/16 02:03:46;;;;;;;4.60;4.20;;;9.50;99.90;9.40;100369.00;;;;5003930;27;116219;-66
2023/04/16 02:06:12;;;;;;;6.53;4.37;;;9.50;99.90;9.40;100372.00;;;;5018992;27;87941;-66
2023/04/16 02:08:38;;;;;;;5.63;3.80;;;9.50;99.90;9.30;100362.00;;;;5005226;27;87959;-66
2023/04/16 02:11:03;;;;;;;5.47;4.10;;;9.40;99.90;9.30;100370.00;;;;5004454;27;119291;-66
2023/04/16 02:13:29;;;;;;;4.90;3.67;;;9.40;99.90;9.20;100370.00;;;;5005950;27;91225;-67
2023/04/16 02:15:55;;;;;;;4.80;3.57;;;9.00;99.90;9.20;100376.00;;;;5008999;27;104322;-66
2023/04/16 02:18:20;;;;;;;5.27;3.63;;;9.30;99.90;9.20;100375.00;;;;5006503;27;87712;-67
2023/04/16 02:20:48;;;;;;;5.03;3.47;;;9.30;99.90;9.20;100371.00;;;;5016203;27;116835;-66
2023/04/16 02:23:14;;;;;;;4.77;3.90;;;9.30;99.90;9.20;100380.00;;;;5006341;27;87782;-66
2023/04/16 02:25:41;;;;;;;7.77;4.30;;;9.30;99.90;9.20;100385.00;;;;5006413;27;89981;-66
2023/04/16 02:28:14;;;;;;;3.27;2.97;;;9.20;99.90;9.20;100378.00;;;;5008982;27;87045;-66
2023/04/16 02:30:41;;;;;;;5.33;3.57;;;8.00;99.90;9.20;100383.00;;;;5008118;27;88769;-66
2023/04/16 02:33:09;;;;;;;4.60;3.17;;;9.20;99.90;9.20;100384.00;;;;5005174;27;118928;-66
2023/04/16 02:35:37;;;;;;;4.20;3.13;;;9.20;99.90;9.10;100386.00;;;;5008753;27;90332;-66
2023/04/16 02:38:04;;;;;;;4.13;3.33;;;9.20;99.90;9.10;100394.00;;;;5009088;27;87927;-66
2023/04/16 02:40:30;;;;;;;5.53;3.33;;;9.20;99.90;9.10;100391.00;;;;5007227;27;88081;-66
2023/04/16 02:42:57;;;;;;;5.73;3.93;;;9.20;99.90;9.10;100391.00;;;;5008709;27;117131;-66
2023/04/16 02:45:23;;;;;;;4.03;3.33;;;9.20;99.90;9.20;100397.00;;;;5007380;27;110276;-66
2023/04/16 02:47:49;;;;;;;4.93;2.73;;;9.30;99.90;9.20;100395.00;;;;5011005;27;88004;-66
2023/04/16 02:50:16;;;;;;;6.00;3.40;;;9.30;99.90;9.10;100393.00;;;;5000314;27;89477;-66
2023/04/16 02:52:42;;;;;;;4.37;3.40;;;9.20;99.90;9.10;100386.00;;;;5008793;27;88787;-67
2023/04/16 02:55:08;;;;;;;5.70;3.17;;;9.20;99.90;9.10;100386.00;;;;5005882;27;87941;-66
2023/04/16 02:57:34;;;;;;;4.47;3.67;;;9.20;99.90;9.10;100390.00;;;;5006978;27;103099;-66
2023/04/16 03:00:00;;;;;;;6.30;2.80;;;9.20;99.90;9.10;100403.00;;;;5007220;27;106649;-66
2023/04/16 03:02:26;;;;;;;5.43;4.07;;;9.30;99.90;9.10;100402.00;;;;5005776;27;101251;-66
2023/04/16 03:04:55;;;;;;;5.10;3.50;;;9.20;99.90;9.10;100396.00;;;;5007819;27;88043;-66
2023/04/16 03:07:20;;;;;;;5.17;3.97;;;9.20;99.90;9.10;100387.00;;;;5006618;27;87861;-66
2023/04/16 03:09:46;;;;;;;4.93;3.30;;;9.20;99.90;9.10;100396.00;;;;4989369;27;121038;-66
2023/04/16 03:12:12;;;;;;;3.97;3.07;;;9.20;99.90;9.10;100403.00;;;;5008180;27;111719;-66
2023/04/16 03:14:37;;;;;;;5.57;3.40;;;9.20;99.90;9.10;100400.00;;;;5008329;27;109979;-66
2023/04/16 03:17:03;;;;;;;5.03;3.57;;;9.20;99.90;9.00;100401.00;;;;5008230;27;109077;-66
2023/04/16 03:19:29;;;;;;;3.97;3.33;;;9.10;99.90;9.00;100413.00;;;;5007018;27;118085;-67
2023/04/16 03:21:55;;;;;;;4.00;3.57;;;9.10;99.90;9.00;100417.00;;;;5010189;27;87840;-66
2023/04/16 03:24:20;;;;;;;5.63;3.20;;;9.10;99.90;8.90;100412.00;;;;5006314;27;88805;-66
2023/04/16 03:26:46;;;;;;;5.00;3.20;;;9.00;99.90;8.90;100409.00;;;;5007540;27;88017;-66
2023/04/16 03:29:12;;;;;;;3.57;3.10;;;9.00;99.90;8.90;100423.00;;;;5006784;27;117467;-66
2023/04/16 03:31:37;;;;;;;5.50;2.97;;;9.00;99.90;8.90;100417.00;;;;5008413;27;115924;-66
2023/04/16 03:34:03;;;;;;;5.07;3.17;;;9.00;99.90;9.00;100417.00;;;;5007847;27;110865;-66
2023/04/16 03:36:29;;;;;;;5.43;4.37;;;9.00;99.90;9.00;100430.00;;;;5011180;27;108836;-66
2023/04/16 03:38:55;;;;;;;3.57;3.27;;;9.10;99.90;9.00;100420.00;;;;5009011;27;88306;-66
2023/04/16 03:41:21;;;;;;;5.37;4.10;;;9.00;99.90;9.00;100427.00;;;;5008390;27;110186;-66
2023/04/16 03:43:46;;;;;;;6.73;3.90;;;9.10;99.90;9.00;100431.00;;;;5007804;27;103438;-66
2023/04/16 03:46:12;;;;;;;5.40;4.40;;;9.10;99.90;9.00;100423.00;;;;5008285;27;107245;-66
2023/04/16 03:48:37;;;;;;;6.17;4.37;;;9.20;99.90;9.00;100433.00;;;;5007256;27;119507;-65
2023/04/16 03:51:03;;;;;;;6.77;4.73;;;9.10;99.90;9.00;100428.00;;;;5005707;27;119695;-66
2023/04/16 03:53:29;;;;;;;6.73;5.23;;;9.10;99.90;9.10;100436.00;;;;5007803;27;89211;-66
2023/04/16 03:55:55;;;;;;;15.97;6.07;;;9.20;99.90;9.10;100433.00;;;;5010440;27;87920;-66
2023/04/16 03:58:20;;;;;;;8.63;5.00;;;9.20;99.90;9.10;100443.00;;;;5006888;27;87790;-66
2023/04/16 04:00:46;;;;;;;11.87;5.03;;;8.10;99.90;9.10;100441.00;;;;5004859;27;117474;-66
2023/04/16 04:03:12;;;;;;;10.07;5.97;;;9.20;99.90;9.10;100438.00;;;;4989654;27;95981;-66
2023/04/16 04:05:41;;;;;;;7.77;5.43;;;9.20;99.90;9.10;100445.00;;;;5009892;27;87252;-66
2023/04/16 04:08:08;;;;;;;9.07;5.10;;;9.20;99.90;9.10;100454.00;;;;5007271;27;88106;-66
2023/04/16 04:10:35;;;;;;;11.60;7.27;;;9.20;99.90;9.20;100463.00;;;;5009328;27;87964;-66
2023/04/16 04:13:03;;;;;;;10.67;6.30;;;9.30;99.90;9.20;100457.00;;;;5010260;27;88772;-66
2023/04/16 04:15:29;;;;;;;11.83;6.00;;;9.20;99.90;9.20;100465.00;;;;5008042;27;99790;-66
2023/04/16 04:17:55;;;;;;;8.57;6.10;;;9.20;99.90;9.20;100464.00;;;;5004192;27;88532;-66
2023/04/16 04:20:21;;;;;;;12.30;6.27;;;9.20;99.90;9.20;100468.00;;;;5005576;27;87827;-66
2023/04/16 04:22:47;;;;;;;6.27;3.77;;;9.30;99.90;9.30;100461.00;;;;5007786;27;87835;-66
2023/04/16 04:25:12;;;;;;;7.33;6.20;;;9.30;99.90;9.30;100467.00;;;;5006663;27;92239;-66
2023/04/16 04:27:38;;;;;;;5.53;4.37;;;9.30;99.90;9.30;100463.00;;;;5010506;27;96058;-66
2023/04/16 04:30:05;;;;;;;9.23;5.33;;;9.40;99.90;9.40;100465.00;;;;5006967;27;103518;-67
2023/04/16 04:32:30;;;;;;;7.07;4.50;;;9.40;99.90;9.40;100473.00;;;;5003729;27;88297;-67
2023/04/16 04:34:59;;;;;;;8.80;5.43;;;9.40;99.90;9.40;100471.00;;;;5004124;27;89332;-66
2023/04/16 04:37:25;;;;;;;5.97;5.10;;;9.50;99.90;9.30;100464.00;;;;5007759;27;89721;-67
2023/04/16 04:39:51;;;;;;;6.57;4.43;;;9.40;99.90;9.30;100472.00;;;;5008901;27;93110;-66
2023/04/16 04:42:17;;;;;;;7.27;5.37;;;9.40;99.90;9.30;100468.00;;;;5005024;27;88856;-66
2023/04/16 04:44:44;;;;;;;11.87;5.33;;;9.40;99.90;9.30;100474.00;;;;5006586;27;87740;-67
2023/04/16 04:47:10;;;;;;;10.57;5.93;;;9.40;99.90;9.30;100480.00;;;;5007298;27;98275;-66
2023/04/16 04:49:35;;;;;;;8.47;4.50;;;9.40;99.90;9.40;100475.00;;;;5007945;27;87727;-66
2023/04/16 04:52:01;;;;;;;6.57;5.07;;;9.50;99.90;9.40;100477.00;;;;5007644;27;109963;-66
2023/04/16 04:54:30;;;;;;;8.63;4.63;;;9.50;99.90;9.50;100483.00;;;;5007169;27;89159;-67
2023/04/16 04:56:56;;;;;;;8.10;5.00;;;9.50;99.90;9.40;100480.00;;;;5006558;27;97090;-66
2023/04/16 04:59:22;;;;;;;5.80;4.20;;;10.00;99.90;9.40;100487.00;;;;5006146;27;89637;-67
2023/04/16 05:01:48;;;;;;;5.77;4.27;;;9.50;99.90;9.30;100486.00;;;;4992689;27;100476;-67
2023/04/16 05:04:14;;;;;;;8.07;4.97;;;9.40;99.90;9.40;100488.00;;;;5006454;27;98687;-66
2023/04/16 05:06:40;;;;;;;4.60;4.07;;;9.40;99.90;9.40;100490.00;;;;5008905;27;117887;-66
2023/04/16 05:09:10;;;;;;;8.00;4.73;;;9.50;99.90;9.40;100488.00;;;;5007293;27;88737;-66
2023/04/16 05:11:37;;;;;;;6.43;4.70;;;9.50;99.90;9.50;100494.00;;;;5009920;27;88242;-67
2023/04/16 05:14:02;;;;;;;5.73;4.07;;;9.50;99.90;9.50;100498.00;;;;5007944;27;88033;-66
2023/04/16 05:16:28;;;;;;;6.40;5.10;;;9.60;99.90;9.50;100495.00;;;;5005969;27;116734;-66
2023/04/16 05:18:54;;;;;;;6.73;4.67;;;9.60;99.90;9.60;100497.00;;;;5011587;27;117916;-66
2023/04/16 05:21:21;;;;;;;9.70;4.37;;;9.60;99.90;9.60;100504.00;;;;5007340;27;87727;-66
2023/04/16 05:23:46;;;;;;;5.73;4.60;;;9.60;99.90;9.60;100507.00;;;;4994835;27;90516;-66
2023/04/16 05:26:12;;;;;;;6.33;4.30;;;9.70;99.90;9.70;100510.00;;;;5002195;27;118083;-66
2023/04/16 05:28:38;;;;;;;7.27;4.50;;;9.70;99.90;9.70;100512.00;;;;5000458;27;118141;-66
2023/04/16 05:31:03;;;;;;;7.73;4.93;;;9.70;99.90;9.60;100509.00;;;;4994892;27;111153;-66
2023/04/16 05:33:29;;;;;;;7.03;4.63;;;9.70;99.90;9.60;100507.00;;;;5000152;27;97876;-67
2023/04/16 05:35:55;;;;;;;6.17;4.03;;;9.70;99.90;9.50;100518.00;;;;5016212;27;117814;-66
2023/04/16 05:38:20;;;;;;;5.30;3.67;;;9.60;99.90;9.60;100518.00;;;;5000044;27;118132;-68
2023/04/16 05:40:46;;;;;;;9.20;6.00;;;9.60;99.90;9.50;100515.00;;;;4995231;27;109808;-67
2023/04/16 05:43:11;;;;;;;7.70;4.10;;;9.60;99.90;9.50;100519.00;;;;5001534;27;108456;-67
2023/04/16 05:45:40;;;;;;;8.47;5.30;;;9.60;99.90;9.50;100524.00;;;;5002027;27;115968;-67
2023/04/16 05:48:10;;;;;;;6.30;4.83;;;9.60;99.90;9.50;100533.00;;;;5000202;27;88722;-68
2023/04/16 05:50:36;;;;;;;8.57;4.60;;;9.60;99.90;9.60;100542.00;;;;4989335;27;89055;-67
2023/04/16 05:53:06;;;;;;;5.57;4.20;;;9.60;99.90;9.60;100538.00;;;;5000502;27;102535;-67
2023/04/16 05:55:32;;;;;;;10.30;5.03;;;9.20;99.90;9.70;100527.00;;;;5002308;27;100806;-68
2023/04/16 05:57:58;;;;;;;8.10;5.37;;;9.70;99.90;9.80;100551.00;;;;5004768;27;88122;-67
2023/04/16 06:00:24;;;;;;;7.03;4.70;;;9.80;99.90;9.90;100542.00;;;;5000331;27;88223;-67
2023/04/16 06:02:49;;;;;;;6.40;3.70;;;9.90;99.90;10.00;100543.00;;;;5003717;27;87907;-68
2023/04/16 06:05:15;;;;;;;4.87;3.90;;;10.00;99.90;10.00;100547.00;;;;5015907;27;118035;-67
2023/04/16 06:07:41;;;;;;;6.27;4.57;;;10.00;99.90;10.00;100549.00;;;;5003857;27;115708;-67
2023/04/16 06:10:07;;;;;;;10.07;5.80;;;10.10;99.90;10.00;100554.00;;;;5005057;27;111235;-67
2023/04/16 06:12:33;;;;;;;9.77;4.93;;;10.10;99.90;10.00;100543.00;;;;5009736;27;99838;-67
2023/04/16 06:15:00;;;;;;;8.53;5.97;;;10.40;99.90;10.00;100553.00;;;;4999775;27;119280;-67
2023/04/16 06:17:26;;;;;;;7.43;5.20;;;10.10;99.90;10.00;100547.00;;;;5006070;27;89557;-67
2023/04/16 06:19:51;;;;;;;8.10;5.13;;;10.10;99.90;10.10;100561.00;;;;5002425;27;89189;-67
2023/04/16 06:22:17;;;;;;;7.57;5.17;;;10.10;99.90;10.10;100554.00;;;;5007655;27;107013;-68
2023/04/16 06:24:43;;;;;;;9.27;4.87;;;10.10;99.90;10.20;100559.00;;;;5005461;27;117185;-66
2023/04/16 06:27:09;;;;;;;5.43;4.70;;;10.20;99.90;10.20;100567.00;;;;5006876;27;108112;-66
2023/04/16 06:29:34;;;;;;;8.67;4.80;;;10.30;99.90;10.30;100574.00;;;;5004954;27;89127;-65
2023/04/16 06:32:01;;;;;;;7.50;4.80;;;10.30;99.90;10.30;100571.00;;;;5004845;27;108005;-66
2023/04/16 06:34:27;;;;;;;7.87;5.33;;;10.40;99.90;10.40;100578.00;;;;5004317;27;87825;-66
2023/04/16 06:36:53;;;;;;;5.40;3.97;;;10.40;99.90;10.50;100581.00;;;;5004445;27;90432;-66
2023/04/16 06:39:20;;;;;;;10.53;5.00;;;10.50;99.90;10.50;100577.00;;;;5003538;27;99901;-66
2023/04/16 06:41:47;;;;;;;6.83;4.93;;;10.50;99.90;10.60;100577.00;;;;4997119;27;87695;-66
2023/04/16 06:44:13;;;;;;;8.77;5.80;;;10.60;99.90;10.60;100576.00;;;;5004122;27;99019;-66
2023/04/16 06:46:39;;;;;;;6.17;4.87;;;10.70;99.90;10.60;100575.00;;;;5005359;27;87892;-66
2023/04/16 06:49:06;;;;;;;8.20;4.73;;;10.70;99.90;10.60;100580.00;;;;4995483;27;87945;-66
2023/04/16 06:51:32;;;;;;;9.07;6.43;;;10.70;99.90;10.70;100587.00;;;;4997436;27;88001;-66
2023/04/16 06:53:58;;;;;;;8.07;6.00;;;10.70;99.90;10.70;100586.00;;;;5001200;27;88466;-65
2023/04/16 06:56:23;;;;;;;9.37;5.77;;;10.80;99.90;10.70;100589.00;;;;5003834;27;87681;-66
2023/04/16 06:58:50;;;;;;;8.43;5.23;;;11.00;99.90;10.80;100580.00;;;;5003951;27;110820;-67
2023/04/16 07:01:16;;;;;;;7.90;5.20;;;10.80;99.90;10.80;100599.00;;;;5006505;27;89174;-67
2023/04/16 07:03:42;;;;;;;7.33;5.27;;;10.80;99.90;10.90;100582.00;;;;5005759;27;89670;-67
2023/04/16 07:06:09;;;;;;;6.83;5.70;;;10.90;99.90;11.00;100595.00;;;;5004388;27;96418;-67
2023/04/16 07:08:34;;;;;;;9.13;5.97;;;11.00;99.90;11.10;100595.00;;;;5003098;27;87942;-67
2023/04/16 07:11:00;;;;;;;7.00;5.50;;;11.10;99.90;11.20;100595.00;;;;5005144;27;109416;-67
2023/04/16 07:13:26;;;;;;;8.43;4.90;;;11.60;99.90;11.30;100592.00;;;;5005137;27;88803;-67
2023/04/16 07:15:52;;;;;;;8.77;5.07;;;11.20;99.90;11.40;100593.00;;;;5005453;27;88328;-67
2023/04/16 07:18:18;;;;;;;5.03;4.10;;;11.40;99.90;11.60;100600.00;;;;5006755;27;95574;-66
2023/04/16 07:20:44;;;;;;;9.70;5.57;;;11.50;99.90;11.70;100587.00;;;;5005343;27;87066;-67
2023/04/16 07:23:10;;;;;;;9.03;5.63;;;11.70;99.90;11.80;100598.00;;;;5007202;27;90718;-67
2023/04/16 07:25:35;;;;;;;6.27;5.27;;;11.80;99.90;11.90;100606.00;;;;5006035;27;88284;-66
2023/04/16 07:28:02;;;;;;;10.60;6.20;;;11.90;99.90;12.10;100611.00;;;;5007345;27;111622;-66
2023/04/16 07:30:32;;;;;;;6.93;4.30;;;12.00;99.90;12.10;100606.00;;;;5006490;27;108487;-67
2023/04/16 07:33:00;;;;;;;7.43;5.00;;;12.10;99.90;12.20;100607.00;;;;5004519;27;88980;-68
2023/04/16 07:35:26;;;;;;;7.53;5.10;;;12.10;99.90;12.20;100606.00;;;;5003885;27;87845;-66
2023/04/16 07:37:51;;;;;;;5.83;4.33;;;12.20;99.90;12.40;100614.00;;;;5006486;27;111961;-67
2023/04/16 07:40:17;;;;;;;6.33;4.23;;;12.30;99.90;12.60;100619.00;;;;5005250;27;109094;-67
2023/04/16 07:42:43;;;;;;;6.77;4.53;;;12.50;99.90;12.70;100620.00;;;;5007213;27;117738;-67
2023/04/16 07:45:09;;;;;;;4.97;4.23;;;12.60;99.90;12.80;100624.00;;;;5002988;27;87886;-67
2023/04/16 07:47:35;;;;;;;6.03;4.27;;;12.70;99.90;12.90;100621.00;;;;5007060;27;89661;-67
2023/04/16 07:50:01;;;;;;;6.53;4.40;;;12.80;99.90;13.00;100629.00;;;;5004369;27;87719;-66
2023/04/16 07:52:26;;;;;;;6.43;3.83;;;12.90;99.90;13.00;100628.00;;;;4987381;27;89363;-67
2023/04/16 07:54:52;;;;;;;7.20;4.80;;;13.00;99.90;13.10;100634.00;;;;5006994;27;117437;-67
2023/04/16 07:57:18;;;;;;;6.17;3.87;;;13.10;99.90;13.20;100631.00;;;;5002752;27;87784;-66
2023/04/16 07:59:43;;;;;;;6.20;4.53;;;13.20;99.90;13.30;100635.00;;;;5003371;27;87873;-66
2023/04/16 08:02:13;;;;;;;5.47;2.90;;;13.20;99.90;13.40;100636.00;;;;5004252;27;118255;-66
2023/04/16 08:04:41;;;;;;;5.43;3.40;;;13.40;99.90;13.40;100636.00;;;;5005136;27;88214;-66
2023/04/16 08:07:07;;;;;;;4.00;3.60;;;13.40;99.90;13.30;100631.00;;;;5006413;27;87954;-66
2023/04/16 08:09:34;;;;;;;7.40;4.17;;;13.30;99.90;13.30;100651.00;;;;5007144;27;88174;-66
2023/04/16 08:12:01;;;;;;;6.00;3.97;;;13.30;99.90;13.30;100632.00;;;;5003305;27;88551;-66
2023/04/16 08:14:26;;;;;;;8.67;4.77;;;13.30;99.90;13.30;100633.00;;;;5007113;27;104295;-67
2023/04/16 08:16:52;;;;;;;4.30;3.33;;;13.30;99.90;13.40;100634.00;;;;4988702;27;100377;-65
2023/04/16 08:19:18;;;;;;;4.93;3.22;;;13.40;99.90;13.60;100642.00;;;;5004091;27;108437;-65
2023/04/16 08:21:44;;;;;;;7.63;4.53;;;13.50;99.90;13.70;100641.00;;;;5006025;27;105284;-65
2023/04/16 08:24:10;;;;;;;4.67;3.77;;;13.70;99.90;13.90;100655.00;;;;5005351;27;89515;-65
2023/04/16 08:26:36;;;;;;;5.90;3.97;;;13.80;99.90;14.10;100645.00;;;;5007070;27;88226;-65
2023/04/16 08:29:01;;;;;;;4.35;3.58;;;14.00;99.90;14.00;100652.00;;;;5007637;27;110183;-65
2023/04/16 08:31:27;;;;;;;3.70;3.03;;;14.00;99.90;14.10;100651.00;;;;5006893;27;93301;-66
2023/04/16 08:33:52;;;;;;;3.88;3.17;;;14.10;99.90;14.20;100655.00;;;;5002744;27;118353;-66
2023/04/16 08:36:18;;;;;;;5.40;3.22;;;14.20;99.90;14.50;100667.00;;;;5000582;27;111322;-66
2023/04/16 08:38:44;;;;;;;4.60;2.60;;;14.30;99.90;14.70;100665.00;;;;5000628;27;108895;-66
2023/04/16 08:41:12;;;;;;;4.65;2.83;;;14.60;99.90;15.00;100669.00;;;;4999915;27;117614;-65
2023/04/16 08:43:43;;;;;;;4.72;3.42;;;14.80;99.90;15.10;100670.00;;;;5002313;27;89865;-65
2023/04/16 08:46:11;;;;;;;5.35;3.75;;;15.00;99.90;15.30;100678.00;;;;4999917;27;102423;-66
2023/04/16 08:48:38;;;;;;;5.45;3.03;;;15.20;99.90;15.30;100674.00;;;;5002698;27;88017;-65
2023/04/16 08:51:09;;;;;;;3.35;2.97;;;15.30;99.90;15.30;100681.00;;;;5018513;27;116951;-64
2023/04/16 08:53:51;;;;;;;4.80;2.90;;;15.30;99.90;15.40;100676.00;;;;5005045;27;88131;-64
2023/04/16 08:56:22;;;;;;;3.79;2.46;;;15.30;99.90;15.60;100671.00;;;;4209821;27;10001510;-64
2023/04/16 08:58:50;;;;;;;5.40;3.55;;;15.40;99.90;15.70;100680.00;;;;5002725;27;87223;-64
2023/04/16 09:01:17;;;;;;;3.85;2.47;;;15.60;99.90;15.80;100677.00;;;;5005511;27;88692;-67
2023/04/16 09:03:47;;;;;;;1.67;1.58;;;15.70;99.90;15.90;100683.00;;;;4987535;27;87871;-65
2023/04/16 09:06:14;;;;;;;5.20;2.10;;;15.80;99.90;15.90;100682.00;;;;4989750;27;88870;-64
2023/04/16 09:08:42;;;;;;;2.83;2.30;;;15.90;99.90;15.90;100689.00;;;;5000645;27;88195;-64
2023/04/16 09:11:08;;;;;;;4.60;2.13;;;15.80;99.90;15.90;100694.00;;;;5001914;27;101022;-64
2023/04/16 09:13:36;;;;;;;2.53;1.77;;;15.80;99.90;15.80;100688.00;;;;5006929;27;110031;-64
2023/04/16 09:16:03;;;;;;;4.40;2.08;;;15.80;99.90;15.90;100699.00;;;;4995881;27;109193;-65
2023/04/16 09:18:30;;;;;;;3.63;2.33;;;15.80;99.90;15.90;100697.00;;;;5007016;27;103384;-64
2023/04/16 09:20:56;;;;;;;3.10;2.40;;;15.80;99.90;16.10;100700.00;;;;5000866;27;110196;-64
2023/04/16 09:23:22;;;;;;;2.55;2.33;;;15.90;99.90;16.20;100695.00;;;;5004816;27;88161;-64
2023/04/16 09:25:47;;;;;;;1.90;1.73;;;16.10;99.90;16.20;100698.00;;;;5005632;27;88383;-64
2023/04/16 09:28:43;;;;;;;5.25;1.80;;;16.10;99.90;16.20;100700.00;;;;5004068;27;109116;-66
2023/04/16 09:31:17;;;;;;;1.83;1.42;;;16.10;99.90;16.10;100698.00;;;;4996830;27;89048;-66
2023/04/16 09:34:03;;;;;;;2.25;1.20;;;16.10;99.90;16.10;100698.00;;;;5005257;27;91418;-66
2023/04/16 09:36:31;;;;;;;1.88;1.23;;;16.10;99.90;16.20;100702.00;;;;5003601;27;87834;-66
2023/04/16 09:38:58;;;;;;;1.67;1.30;;;16.10;99.90;16.30;100699.00;;;;5000915;27;88679;-66
2023/04/16 09:41:27;;;;;;;1.27;1.00;;;16.10;99.90;16.20;100698.00;;;;5005654;27;88129;-65
2023/04/16 09:44:03;;;;;;;1.95;1.27;;;16.10;99.90;16.30;100709.00;;;;5001418;27;88152;-66
2023/04/16 09:46:31;;;;;;;0.80;0.80;;;16.10;99.90;16.40;100705.00;;;;5014806;27;88001;-65
2023/04/16 09:48:57;;;;;;;3.63;1.17;;;16.20;99.90;16.50;100713.00;;;;5005357;27;87039;-65
2023/04/16 09:51:24;;;;;;;1.17;1.08;;;16.30;99.90;16.50;100704.00;;;;5006741;27;88203;-65
2023/04/16 09:53:56;;;;;;;1.58;1.15;;;16.40;99.90;16.50;100706.00;;;;4987456;27;90075;-64
2023/04/16 09:56:25;;;;;;;1.33;1.10;;;16.40;99.90;16.50;100714.00;;;;5003300;27;116543;-64
2023/04/16 09:58:56;;;;;;;1.38;1.08;;;16.40;99.90;16.60;100711.00;;;;5000671;27;87778;-65
2023/04/16 10:01:22;;;;;;;1.38;1.27;;;16.40;99.90;16.80;100718.00;;;;5006059;27;87970;-65
2023/04/16 10:03:49;;;;;;;2.13;0.70;;;16.60;99.90;17.00;100711.00;;;;5017344;27;88681;-66
2023/04/16 10:06:21;;;;;;;0.85;0.60;;;16.80;99.90;17.20;100720.00;;;;5002606;27;89018;-66
2023/04/16 10:08:55;;;;;;;1.65;0.95;;;16.90;99.90;17.30;100718.00;;;;5000490;27;87988;-65
2023/04/16 10:11:21;;;;;;;1.92;1.48;;;17.10;99.90;17.40;100726.00;;;;5003210;27;87740;-65
2023/04/16 10:13:47;;;;;;;1.45;1.17;;;17.20;99.90;17.50;100722.00;;;;5004715;27;88095;-64
2023/04/16 10:16:13;;;;;;;1.65;1.05;;;17.30;99.90;17.60;100734.00;;;;5002669;27;103180;-66
2023/04/16 10:18:42;;;;;;;0.93;0.85;;;17.40;99.90;17.70;100737.00;;;;5003616;27;100264;-65
2023/04/16 10:21:11;;;;;;;3.15;1.55;;;17.40;99.90;17.70;100748.00;;;;4984474;27;95898;-64
2023/04/16 10:23:42;;;;;;;1.42;0.93;;;17.50;99.90;17.70;100745.00;;;;5004603;27;88970;-64
2023/04/16 10:26:08;;;;;;;1.73;1.13;;;17.60;99.90;17.80;100746.00;;;;4997578;27;88490;-65
2023/04/16 10:28:35;;;;;;;1.92;1.23;;;17.60;99.90;17.70;100744.00;;;;5000277;27;90509;-65
2023/04/16 10:31:03;;;;;;;1.02;1.00;;;17.60;99.90;17.60;100738.00;;;;4999585;27;87964;-65
2023/04/16 10:33:32;;;;;;;1.27;1.17;;;17.60;99.90;17.50;100741.00;;;;5006136;27;90270;-65
2023/04/16 10:36:21;;;;;;;2.17;1.27;;;17.40;99.90;17.30;100743.00;;;;5016849;27;88292;-67
2023/04/16 10:38:51;;;;;;;1.83;1.55;;;17.30;99.90;17.20;100732.00;;;;5006198;27;87578;-66
2023/04/16 10:41:19;;;;;;;2.95;1.58;;;17.10;99.90;16.90;100741.00;;;;5001270;27;87886;-66
2023/04/16 10:43:48;;;;;;;2.72;1.98;;;16.90;99.90;16.80;100751.00;;;;5003621;27;88858;-66
2023/04/16 10:46:31;;;;;;;2.53;1.98;;;16.80;99.90;16.60;100744.00;;;;5000246;27;89050;-65
2023/04/16 10:49:02;;;;;;;1.75;1.40;;;16.60;99.90;16.50;100755.00;;;;5003054;27;100448;-67
2023/04/16 10:51:35;;;;;;;2.53;1.80;;;16.40;99.90;16.40;100760.00;;;;5017480;27;88728;-65